Appleton, Colorado
Current Conditions -  °F | °C
As of 4:53 AM on Friday 28 Nov 2014 (Local Time) from KGJT Reporting Station
Clear Clear  
Wind Chill: 21°   Ceiling: Unl
Heat Index: 21°   Visibility: 10mi
Dew Point: 19°   Wind: 3mph
Humidity: 92%   Direction: 80°E
Pressure: 30.23"   Gusts: NA
Location:  39.1857°N, 108.6°W
Report Text: KGJT 281153Z AUTO 08003KT 10SM CLR M06/M07 A3023 RMK AO2 SLP246 T10611072 10017 21061 58008
Loading
Personal Weather Stations






























Interactive Weather Map New forecast layout! Learn more

10-Day Weather Forecast

Advertisements
Track Severe Weather on mobile